Time;durP1;ratioP1;P1;durP2;ratioP2;P2;SDS_P1;SDS_P2;PMS_P1;PMS_P2;Temp;Humidity;BMP_temperature;BMP_pressure;BME280_temperature;BME280_humidity;BME280_pressure;Samples;Min_cycle;Max_cycle;Signal;HPM_P1;HPM_P2
2021/05/11 00:02:16;;;;;;;0.80;0.80;;;20.90;37.00;;;;;;8328620;28;20134;-50
2021/05/11 00:06:17;;;;;;;1.08;0.95;;;20.90;37.00;;;;;;8311285;28;20100;-46
2021/05/11 00:10:18;;;;;;;1.03;0.87;;;20.90;37.00;;;;;;8318006;28;20029;-46
2021/05/11 00:14:18;;;;;;;1.33;1.00;;;20.80;37.00;;;;;;8324859;28;20099;-50
2021/05/11 00:18:19;;;;;;;1.27;0.77;;;20.80;37.00;;;;;;8331119;28;20041;-46
2021/05/11 00:22:19;;;;;;;1.03;0.93;;;20.80;37.10;;;;;;8326198;28;20502;-50
2021/05/11 00:26:20;;;;;;;0.90;0.83;;;20.80;37.00;;;;;;8324911;28;20109;-48
2021/05/11 00:30:20;;;;;;;1.10;0.77;;;20.80;37.10;;;;;;8326215;28;20029;-47
2021/05/11 00:34:21;;;;;;;1.63;0.70;;;20.80;37.10;;;;;;8328098;28;20084;-51
2021/05/11 00:38:21;;;;;;;1.20;1.00;;;20.80;37.30;;;;;;8294638;28;20034;-47
2021/05/11 00:42:22;;;;;;;0.80;0.80;;;20.80;37.10;;;;;;8309461;28;20050;-47
2021/05/11 00:46:25;;;;;;;2.05;0.98;;;20.80;37.10;;;;;;8324034;28;20029;-50
2021/05/11 00:50:26;;;;;;;1.67;1.00;;;20.80;37.10;;;;;;8325665;28;20521;-51
2021/05/11 00:54:26;;;;;;;1.43;1.13;;;20.80;37.10;;;;;;8330013;28;20041;-50
2021/05/11 00:58:28;;;;;;;1.27;0.97;;;20.80;37.10;;;;;;8323974;28;20402;-48
2021/05/11 01:02:28;;;;;;;;;;;20.80;37.10;;;;;;8317201;28;20646;-48
2021/05/11 01:06:29;;;;;;;1.03;0.80;;;20.70;37.10;;;;;;8292928;28;19909;-48
2021/05/11 01:10:29;;;;;;;2.53;1.00;;;20.70;37.10;;;;;;8296280;28;20036;-47
2021/05/11 01:14:30;;;;;;;1.67;1.00;;;20.70;37.10;;;;;;8316306;28;20462;-47
2021/05/11 01:18:33;;;;;;;2.60;0.90;;;20.70;37.10;;;;;;8292203;28;20609;-47
2021/05/11 01:22:47;;;;;;;1.23;0.82;;;20.70;37.10;;;;;;8292260;28;20073;-50
2021/05/11 01:26:56;;;;;;;0.95;0.75;;;20.70;37.10;;;;;;8313270;28;20566;-51
2021/05/11 02:26:19;;;;;;;1.45;1.10;;;20.60;37.30;;;;;;8322423;28;20103;-49
2021/05/11 02:30:20;;;;;;;1.05;0.88;;;20.60;37.30;;;;;;8329189;28;20029;-45
2021/05/11 02:34:21;;;;;;;1.27;0.90;;;20.60;37.30;;;;;;8329793;28;20037;-46
2021/05/11 02:38:21;;;;;;;1.07;0.97;;;20.60;37.30;;;;;;8324610;28;20021;-47
2021/05/11 02:42:22;;;;;;;1.20;0.97;;;20.60;37.30;;;;;;8313495;28;20502;-46
2021/05/11 02:46:22;;;;;;;1.10;1.00;;;20.60;37.30;;;;;;8303406;28;20033;-49
2021/05/11 02:50:28;;;;;;;0.93;0.83;;;20.60;37.30;;;;;;8321572;28;20030;-47
2021/05/11 02:54:29;;;;;;;1.85;1.02;;;20.60;37.40;;;;;;8318123;28;20041;-48
2021/05/11 02:58:33;;;;;;;0.93;0.70;;;20.60;37.30;;;;;;8327801;28;20087;-48
2021/05/11 03:02:34;;;;;;;1.08;0.90;;;20.60;37.30;;;;;;8329002;28;20486;-48
2021/05/11 03:06:34;;;;;;;2.03;1.00;;;20.50;37.40;;;;;;8329422;28;20036;-46
2021/05/11 03:10:35;;;;;;;1.37;1.13;;;20.60;37.40;;;;;;8300888;28;20030;-47
2021/05/11 03:14:35;;;;;;;2.00;1.00;;;20.50;37.40;;;;;;8300263;28;20426;-47
2021/05/11 03:18:36;;;;;;;1.00;1.00;;;20.50;37.40;;;;;;8314044;28;20048;-46
2021/05/11 03:22:36;;;;;;;1.10;1.00;;;20.50;37.40;;;;;;8300371;28;20042;-46
2021/05/11 03:26:37;;;;;;;1.10;0.93;;;20.50;37.30;;;;;;8306166;28;20040;-46
2021/05/11 03:30:40;;;;;;;0.90;0.90;;;20.50;37.40;;;;;;8332567;28;20035;-47
2021/05/11 03:34:41;;;;;;;1.17;0.98;;;20.50;37.40;;;;;;8299323;28;20502;-47
2021/05/11 03:38:44;;;;;;;0.90;0.90;;;20.50;37.40;;;;;;8295477;28;20042;-47
2021/05/11 03:42:52;;;;;;;1.15;0.90;;;20.50;37.40;;;;;;8314559;28;20073;-46
2021/05/11 03:46:53;;;;;;;1.67;0.93;;;20.50;37.30;;;;;;8326089;28;20390;-47
2021/05/11 03:50:53;;;;;;;0.87;0.80;;;20.50;37.30;;;;;;8331954;28;20029;-48
2021/05/11 03:54:54;;;;;;;1.50;0.80;;;20.50;37.30;;;;;;8327345;28;20119;-47
2021/05/11 03:58:55;;;;;;;1.03;0.90;;;20.50;37.20;;;;;;8325476;28;20179;-46
2021/05/11 04:02:55;;;;;;;0.77;0.70;;;20.50;37.10;;;;;;8327011;28;20049;-46
2021/05/11 04:06:56;;;;;;;0.70;0.67;;;20.50;37.10;;;;;;8331493;28;20326;-45
2021/05/11 04:11:02;;;;;;;1.70;1.00;;;20.50;37.20;;;;;;8325145;28;20053;-49
2021/05/11 04:19:22;;;;;;;1.20;1.05;;;20.50;37.10;;;;;;8326458;28;20401;-49
2021/05/11 04:23:23;;;;;;;1.47;0.90;;;20.50;37.20;;;;;;8316892;28;20042;-48
2021/05/11 04:27:23;;;;;;;0.53;0.53;;;20.50;37.20;;;;;;8298165;28;20041;-49
2021/05/11 04:31:24;;;;;;;0.70;0.70;;;20.50;37.20;;;;;;8316483;28;20071;-45
2021/05/11 04:35:25;;;;;;;0.47;0.47;;;20.50;37.30;;;;;;8326594;28;20521;-48
2021/05/11 04:39:26;;;;;;;1.05;0.70;;;20.50;37.30;;;;;;8325982;28;20032;-46
2021/05/11 04:43:28;;;;;;;1.40;0.80;;;20.50;37.30;;;;;;8303606;28;20064;-47
2021/05/11 04:47:46;;;;;;;0.75;0.75;;;20.50;37.30;;;;;;8301696;28;20037;-47
2021/05/11 04:51:46;;;;;;;2.47;0.88;;;20.50;37.40;;;;;;8325273;28;20085;-48
2021/05/11 04:55:47;;;;;;;0.80;0.80;;;20.50;37.40;;;;;;8296456;28;20042;-48
2021/05/11 04:59:47;;;;;;;0.93;0.93;;;20.50;37.40;;;;;;8292930;28;20164;-50
2021/05/11 05:03:52;;;;;;;1.20;0.90;;;20.50;37.40;;;;;;8297374;28;20057;-47
2021/05/11 05:07:52;;;;;;;1.42;0.80;;;20.50;37.40;;;;;;8306222;28;20045;-47
2021/05/11 05:11:53;;;;;;;1.17;0.70;;;20.50;37.50;;;;;;8340475;28;20041;-47
2021/05/11 05:15:55;;;;;;;1.20;0.90;;;20.50;37.50;;;;;;8325430;28;20027;-46
2021/05/11 05:19:55;;;;;;;0.77;0.75;;;20.50;37.50;;;;;;8327734;28;20088;-46
2021/05/11 05:24:11;;;;;;;0.80;0.80;;;20.50;37.50;;;;;;8312162;28;20442;-47
2021/05/11 05:28:13;;;;;;;0.73;0.70;;;20.50;37.50;;;;;;8315644;28;20040;-49
2021/05/11 05:32:14;;;;;;;1.70;0.88;;;20.50;37.40;;;;;;8316417;28;20029;-48
2021/05/11 05:36:15;;;;;;;1.13;0.88;;;20.50;37.50;;;;;;8307503;28;20390;-48
2021/05/11 05:40:19;;;;;;;0.90;0.85;;;20.50;37.40;;;;;;8305534;28;20046;-49
2021/05/11 05:44:20;;;;;;;0.60;0.55;;;20.50;37.50;;;;;;8322781;28;20083;-49
2021/05/11 05:48:21;;;;;;;0.67;0.67;;;20.50;37.50;;;;;;8308871;28;20034;-49
2021/05/11 05:52:23;;;;;;;0.95;0.70;;;20.50;37.50;;;;;;8291089;28;20141;-47
2021/05/11 05:56:24;;;;;;;1.02;0.82;;;20.50;37.50;;;;;;8317530;28;20030;-47
2021/05/11 06:00:25;;;;;;;0.60;0.60;;;20.50;37.50;;;;;;8290801;28;20069;-47
2021/05/11 06:04:26;;;;;;;1.15;0.60;;;20.50;37.40;;;;;;8292744;28;20034;-47
2021/05/11 06:08:28;;;;;;;0.87;0.80;;;20.40;37.40;;;;;;8296754;28;20045;-47
2021/05/11 06:12:45;;;;;;;1.00;0.73;;;20.50;37.40;;;;;;8314567;28;20091;-47
2021/05/11 06:21:05;;;;;;;1.17;0.77;;;20.50;37.40;;;;;;8324958;28;20164;-47
2021/05/11 06:25:08;;;;;;;0.80;0.80;;;20.50;37.40;;;;;;8328830;28;20442;-47
2021/05/11 06:29:10;;;;;;;0.85;0.63;;;20.50;37.40;;;;;;8326933;28;20035;-46
2021/05/11 06:33:10;;;;;;;2.35;0.80;;;20.50;37.30;;;;;;8332446;28;20033;-47
2021/05/11 06:37:11;;;;;;;0.73;0.70;;;20.50;37.30;;;;;;8329384;28;20034;-47
2021/05/11 06:41:12;;;;;;;1.37;0.90;;;20.50;37.40;;;;;;8327061;28;20149;-47
2021/05/11 06:45:47;;;;;;;;;;;20.50;37.40;;;;;;8328475;28;20164;-47
2021/05/11 06:50:10;;;;;;;0.95;0.75;;;20.50;37.40;;;;;;8326372;28;19913;-50
2021/05/11 06:54:06;;;;;;;0.60;0.60;;;20.50;37.40;;;;;;8327612;28;20521;-48
2021/05/11 06:58:07;;;;;;;3.20;0.80;;;20.50;37.40;;;;;;8332289;28;20041;-47
2021/05/11 07:02:08;;;;;;;0.95;0.70;;;20.50;37.40;;;;;;8325827;28;20067;-47
2021/05/11 07:06:11;;;;;;;2.40;0.80;;;20.50;37.30;;;;;;8312722;28;20026;-50
2021/05/11 07:10:19;;;;;;;1.00;0.90;;;20.50;37.30;;;;;;8294530;28;20077;-47
2021/05/11 07:14:19;;;;;;;0.70;0.60;;;20.50;37.30;;;;;;8304705;28;20128;-48
2021/05/11 07:18:24;;;;;;;0.83;0.70;;;20.50;37.30;;;;;;8327238;28;20029;-47
2021/05/11 07:22:25;;;;;;;0.93;0.80;;;20.50;37.40;;;;;;8325723;28;20065;-45
2021/05/11 07:26:28;;;;;;;1.20;1.03;;;20.50;37.30;;;;;;8327718;28;20037;-49
2021/05/11 07:30:30;;;;;;;1.80;0.95;;;20.50;37.30;;;;;;8328951;28;20029;-46
2021/05/11 07:34:30;;;;;;;1.10;0.90;;;20.50;37.40;;;;;;8297947;28;20045;-47
2021/05/11 07:38:31;;;;;;;0.93;0.90;;;20.50;37.30;;;;;;8319397;28;20034;-46
2021/05/11 07:42:32;;;;;;;2.30;0.80;;;20.50;37.40;;;;;;8328095;28;20045;-47
2021/05/11 07:46:48;;;;;;;0.70;0.70;;;20.50;37.30;;;;;;8326102;28;20040;-46
2021/05/11 08:04:10;;;;;;;1.58;0.90;;;20.50;37.30;;;;;;8327003;28;20068;-49
2021/05/11 08:16:49;;;;;;;1.50;1.02;;;20.60;37.40;;;;;;8325909;28;20037;-50
2021/05/11 08:29:30;;;;;;;1.30;1.10;;;20.60;37.30;;;;;;8292331;28;20049;-45
2021/05/11 08:33:31;;;;;;;0.88;0.82;;;20.60;37.40;;;;;;8293510;28;20087;-45
2021/05/11 08:37:32;;;;;;;2.10;0.90;;;20.60;37.30;;;;;;8296381;28;20435;-49
2021/05/11 08:41:32;;;;;;;1.67;0.83;;;20.60;37.40;;;;;;8302815;28;20052;-47
2021/05/11 08:45:33;;;;;;;1.40;0.90;;;20.60;37.30;;;;;;8308106;28;20414;-50
2021/05/11 08:49:34;;;;;;;1.02;0.88;;;20.60;37.30;;;;;;8317805;28;20030;-47
2021/05/11 09:06:46;;;;;;;1.73;0.80;;;20.70;37.40;;;;;;8292807;28;20040;-48
2021/05/11 09:32:43;;;;;;;0.90;0.80;;;20.80;37.40;;;;;;8274551;28;20129;-50
2021/05/11 09:58:53;;;;;;;1.10;1.00;;;20.90;37.50;;;;;;8304911;28;20497;-46
2021/05/11 10:47:13;;;;;;;0.70;0.70;;;20.90;37.50;;;;;;8299654;28;20407;-46
2021/05/11 10:51:22;;;;;;;1.42;0.75;;;20.90;37.50;;;;;;8322285;28;20061;-49
2021/05/11 10:55:26;;;;;;;0.85;0.80;;;20.90;37.50;;;;;;8303128;28;20042;-46
2021/05/11 11:03:28;;;;;;;1.42;0.85;;;20.90;37.60;;;;;;8300769;28;20414;-50
2021/05/11 11:07:37;;;;;;;1.90;0.83;;;20.90;37.50;;;;;;8319801;28;20037;-51
2021/05/11 11:11:37;;;;;;;1.10;0.90;;;20.90;37.60;;;;;;8329191;28;20072;-47
2021/05/11 11:15:40;;;;;;;0.67;0.60;;;20.90;37.60;;;;;;8328466;28;20474;-48
2021/05/11 11:19:48;;;;;;;0.50;0.50;;;20.90;37.60;;;;;;8327017;28;20044;-48
2021/05/11 11:23:54;;;;;;;0.75;0.75;;;20.90;37.60;;;;;;8321002;28;20049;-46
2021/05/11 11:27:54;;;;;;;1.05;0.95;;;20.90;37.60;;;;;;8295819;28;20145;-49
2021/05/11 11:31:56;;;;;;;0.77;0.73;;;20.90;37.60;;;;;;8294266;28;20034;-49
2021/05/11 11:35:56;;;;;;;1.33;0.95;;;20.80;37.50;;;;;;8295513;28;20041;-51
2021/05/11 11:40:01;;;;;;;0.90;0.80;;;20.80;37.60;;;;;;8299394;28;20540;-49
2021/05/11 11:44:02;;;;;;;0.65;0.60;;;20.80;37.60;;;;;;8319157;28;20422;-49
2021/05/11 11:48:04;;;;;;;0.70;0.70;;;20.80;37.60;;;;;;8308916;28;20100;-47
2021/05/11 11:56:37;;;;;;;0.88;0.80;;;20.80;37.60;;;;;;8317991;28;19913;-48
2021/05/11 12:00:37;;;;;;;1.00;0.77;;;20.80;37.60;;;;;;8316162;28;20049;-47
2021/05/11 12:04:38;;;;;;;1.60;0.97;;;20.80;37.70;;;;;;8325496;28;20052;-47
2021/05/11 12:08:39;;;;;;;1.55;1.15;;;20.80;37.70;;;;;;8317309;28;20437;-51
2021/05/11 12:12:39;;;;;;;1.53;1.40;;;20.80;37.70;;;;;;8313085;28;20037;-47
2021/05/11 12:16:47;;;;;;;3.17;1.53;;;20.80;37.70;;;;;;8322764;28;20025;-47
2021/05/11 12:20:59;;;;;;;2.97;1.58;;;20.80;37.70;;;;;;8309920;28;20497;-49
2021/05/11 12:24:59;;;;;;;2.50;1.50;;;20.80;37.90;;;;;;8305531;28;20374;-50
2021/05/11 12:29:07;;;;;;;2.23;1.30;;;20.80;37.70;;;;;;8321650;28;20037;-45
2021/05/11 12:33:10;;;;;;;2.35;1.10;;;20.80;37.80;;;;;;8326507;28;20036;-49
2021/05/11 12:37:11;;;;;;;2.42;1.10;;;20.80;38.30;;;;;;8307695;28;20034;-50
2021/05/11 12:41:32;;;;;;;2.30;1.67;;;20.80;37.70;;;;;;8322668;28;20044;-51
2021/05/11 12:45:47;;;;;;;1.50;1.20;;;20.80;37.70;;;;;;8325927;28;20049;-48
2021/05/11 12:49:54;;;;;;;1.92;1.25;;;20.80;37.80;;;;;;8323870;28;20040;-49
2021/05/11 12:53:57;;;;;;;1.75;1.30;;;20.70;37.70;;;;;;8341326;28;20048;-47
2021/05/11 12:58:10;;;;;;;1.55;1.05;;;20.70;37.80;;;;;;8329810;28;20041;-48
2021/05/11 13:02:28;;;;;;;1.92;1.27;;;20.70;37.70;;;;;;8295278;28;20129;-48
2021/05/11 13:15:29;;;;;;;1.63;0.95;;;20.70;37.80;;;;;;8311036;28;20486;-49
2021/05/11 13:33:12;;;;;;;2.35;1.48;;;20.70;37.80;;;;;;8318453;28;20064;-51
2021/05/11 13:36:41;;;;;;;1.92;1.48;;;20.70;37.80;;;;;;8327340;28;20118;-52
2021/05/11 13:40:42;;;;;;;1.40;0.90;;;20.70;37.80;;;;;;8322963;28;20045;-49
2021/05/11 13:44:42;;;;;;;1.77;1.23;;;20.70;37.80;;;;;;8329019;28;20037;-52
2021/05/11 13:48:46;;;;;;;1.63;1.03;;;20.70;37.80;;;;;;8324426;28;20133;-48
2021/05/11 13:52:47;;;;;;;3.15;1.27;;;20.70;37.80;;;;;;8322916;28;20048;-51
2021/05/11 14:05:30;;;;;;;1.65;0.98;;;20.70;37.90;;;;;;8327534;28;20040;-49
2021/05/11 14:09:31;;;;;;;1.57;0.90;;;20.80;37.80;;;;;;8324276;28;20029;-49
2021/05/11 14:13:32;;;;;;;;;;;20.70;37.80;;;;;;8323092;28;20037;-52
2021/05/11 14:17:33;;;;;;;1.97;1.10;;;20.70;37.80;;;;;;8324363;28;19913;-48
2021/05/11 14:21:34;;;;;;;1.27;0.90;;;20.70;37.80;;;;;;8323509;28;20053;-51
2021/05/11 14:25:34;;;;;;;1.13;1.00;;;20.70;37.90;;;;;;8330416;28;20494;-49
2021/05/11 14:29:35;;;;;;;1.60;1.00;;;20.70;37.80;;;;;;8330286;28;20033;-48
2021/05/11 14:33:35;;;;;;;1.20;1.00;;;20.70;37.90;;;;;;8329833;28;20116;-51
2021/05/11 14:37:36;;;;;;;0.97;0.93;;;20.70;37.80;;;;;;8328111;28;20040;-49
2021/05/11 14:41:36;;;;;;;1.10;0.93;;;20.70;37.90;;;;;;8333844;28;20072;-48
2021/05/11 14:45:37;;;;;;;1.93;1.30;;;20.70;37.90;;;;;;8329737;28;20076;-51
2021/05/11 14:49:37;;;;;;;1.67;0.90;;;20.70;37.90;;;;;;8328079;28;20037;-49
2021/05/11 14:53:38;;;;;;;1.87;1.10;;;20.70;37.90;;;;;;8319122;28;20126;-53
2021/05/11 14:57:39;;;;;;;1.10;0.80;;;20.70;37.90;;;;;;8300917;28;20038;-50
2021/05/11 15:01:40;;;;;;;1.52;0.95;;;20.70;37.90;;;;;;8320246;28;20049;-48
2021/05/11 15:05:41;;;;;;;1.63;0.90;;;20.70;37.90;;;;;;8296174;28;20069;-52
2021/05/11 15:09:42;;;;;;;;;;;20.70;37.90;;;;;;8296276;28;20030;-50
2021/05/11 15:13:44;;;;;;;1.20;0.87;;;20.70;37.90;;;;;;8321412;28;19974;-52
2021/05/11 15:21:46;;;;;;;;;;;20.70;37.90;;;;;;8328838;28;20049;-51
2021/05/11 15:25:46;;;;;;;1.63;1.10;;;20.70;37.90;;;;;;8326505;28;19936;-49
2021/05/11 15:29:47;;;;;;;1.43;0.80;;;20.70;37.90;;;;;;8328025;28;20409;-49
2021/05/11 15:33:48;;;;;;;1.13;0.87;;;20.70;37.90;;;;;;8332592;28;20124;-52
2021/05/11 15:37:53;;;;;;;0.97;0.80;;;20.70;37.90;;;;;;8326158;28;20041;-50
2021/05/11 15:41:53;;;;;;;1.00;0.85;;;20.70;37.90;;;;;;8327768;28;20049;-52
2021/05/11 15:45:54;;;;;;;0.90;0.67;;;20.70;37.90;;;;;;8327394;28;20060;-49
2021/05/11 15:49:55;;;;;;;1.27;0.88;;;20.60;37.90;;;;;;8325778;28;20030;-52
2021/05/11 15:53:56;;;;;;;4.07;0.80;;;20.70;37.90;;;;;;8332081;28;20037;-50
2021/05/11 15:57:57;;;;;;;0.90;0.75;;;20.70;38.00;;;;;;8327444;28;20033;-52
2021/05/11 16:01:59;;;;;;;1.27;0.73;;;20.70;37.90;;;;;;8324957;28;20049;-53
2021/05/11 16:05:59;;;;;;;1.10;0.80;;;20.70;38.00;;;;;;8327080;28;20061;-50
2021/05/11 16:10:05;;;;;;;1.90;1.00;;;20.70;37.90;;;;;;8331022;28;20052;-51
2021/05/11 16:14:06;;;;;;;0.93;0.80;;;20.70;37.90;;;;;;8324747;28;20029;-48
2021/05/11 16:18:06;;;;;;;0.97;0.60;;;20.60;37.90;;;;;;8328088;28;20041;-52
2021/05/11 16:22:07;;;;;;;0.98;0.77;;;20.70;38.00;;;;;;8326064;28;20344;-49
2021/05/11 16:26:07;;;;;;;2.40;0.90;;;20.60;37.90;;;;;;8320457;28;20040;-50
2021/05/11 16:30:11;;;;;;;0.97;0.60;;;20.70;38.00;;;;;;8310298;28;20029;-48
2021/05/11 16:34:11;;;;;;;0.93;0.80;;;20.70;37.90;;;;;;8325542;28;20041;-52
2021/05/11 16:38:12;;;;;;;1.23;0.90;;;20.60;37.90;;;;;;8324088;28;20396;-51
2021/05/11 16:42:13;;;;;;;0.80;0.67;;;20.60;37.90;;;;;;8324124;28;20516;-49
2021/05/11 16:46:13;;;;;;;1.77;1.23;;;20.70;38.00;;;;;;8329622;28;20080;-53
2021/05/11 16:50:14;;;;;;;0.93;0.80;;;20.60;37.90;;;;;;8321452;28;20042;-50
2021/05/11 16:54:15;;;;;;;0.77;0.67;;;20.60;37.90;;;;;;8323451;28;20025;-51
2021/05/11 16:58:15;;;;;;;0.90;0.87;;;20.60;37.90;;;;;;8325220;28;20037;-49
2021/05/11 17:02:16;;;;;;;1.30;0.70;;;20.60;38.40;;;;;;8327723;28;20330;-49
2021/05/11 17:06:16;;;;;;;0.70;0.60;;;20.60;37.90;;;;;;8325319;28;20038;-47
2021/05/11 17:10:18;;;;;;;0.87;0.70;;;20.60;37.90;;;;;;8301531;28;20502;-50
2021/05/11 17:14:19;;;;;;;1.10;0.68;;;20.60;37.90;;;;;;8314939;28;20501;-50
2021/05/11 17:18:20;;;;;;;1.33;0.83;;;20.60;37.90;;;;;;8308061;28;20033;-49
2021/05/11 17:22:20;;;;;;;1.00;0.90;;;20.60;38.00;;;;;;8328831;28;20060;-50
2021/05/11 17:26:21;;;;;;;1.33;0.90;;;20.60;37.90;;;;;;8322726;28;20112;-49
2021/05/11 17:30:24;;;;;;;0.57;0.57;;;20.60;38.00;;;;;;8324863;28;20034;-48
2021/05/11 17:34:25;;;;;;;1.10;0.75;;;20.60;37.90;;;;;;8322333;28;20040;-46
2021/05/11 17:38:31;;;;;;;1.17;0.93;;;20.60;38.00;;;;;;8329132;28;20033;-46
2021/05/11 17:42:31;;;;;;;1.08;0.98;;;20.60;38.00;;;;;;8324319;28;20081;-49
2021/05/11 17:46:32;;;;;;;1.23;1.07;;;20.60;38.00;;;;;;8323267;28;20434;-49
2021/05/11 17:50:33;;;;;;;2.07;0.90;;;20.60;38.00;;;;;;8322974;28;20042;-48
2021/05/11 17:54:33;;;;;;;1.15;1.05;;;20.60;37.90;;;;;;8307830;28;20096;-51
2021/05/11 17:58:34;;;;;;;0.80;0.80;;;20.60;38.00;;;;;;8295765;28;20037;-48
2021/05/11 18:02:34;;;;;;;1.20;1.00;;;20.60;38.00;;;;;;8308368;28;20498;-51
2021/05/11 18:06:35;;;;;;;1.23;1.05;;;20.60;38.00;;;;;;8346035;28;20036;-49
2021/05/11 18:10:36;;;;;;;1.17;1.00;;;20.60;38.10;;;;;;8304467;28;20030;-50
2021/05/11 18:14:37;;;;;;;1.02;0.70;;;20.60;38.00;;;;;;8324823;28;20034;-48
2021/05/11 18:18:37;;;;;;;1.07;0.83;;;20.50;38.00;;;;;;8297717;28;20053;-49
2021/05/11 18:22:38;;;;;;;1.17;0.80;;;20.60;38.00;;;;;;8295897;28;20133;-47
2021/05/11 18:26:39;;;;;;;1.08;0.68;;;20.60;38.10;;;;;;8308280;28;20133;-51
2021/05/11 18:30:39;;;;;;;0.80;0.70;;;20.50;38.00;;;;;;8332647;28;20128;-48
2021/05/11 18:34:40;;;;;;;0.85;0.85;;;20.50;38.10;;;;;;8328175;28;20402;-49
2021/05/11 18:38:45;;;;;;;1.00;0.87;;;20.50;38.10;;;;;;8330112;28;20034;-50
2021/05/11 18:42:46;;;;;;;1.02;0.70;;;20.50;38.10;;;;;;8329600;28;20041;-50
2021/05/11 18:46:48;;;;;;;1.10;1.00;;;20.50;38.10;;;;;;8324791;28;20029;-50
2021/05/11 18:50:48;;;;;;;1.33;0.90;;;20.50;38.10;;;;;;8312839;28;20091;-49
2021/05/11 18:54:51;;;;;;;1.80;0.80;;;20.50;38.10;;;;;;8329330;28;20033;-49
2021/05/11 18:58:53;;;;;;;1.88;1.02;;;20.50;38.10;;;;;;8327823;28;20428;-48
2021/05/11 19:02:53;;;;;;;;;;;20.50;38.70;;;;;;8329289;28;20064;-49
2021/05/11 19:06:54;;;;;;;1.20;0.90;;;20.50;38.20;;;;;;8333418;28;19909;-50
2021/05/11 19:10:55;;;;;;;1.57;1.00;;;20.50;38.20;;;;;;8302120;28;20061;-50
2021/05/11 19:14:56;;;;;;;0.70;0.70;;;20.50;38.20;;;;;;8316219;28;20085;-49
2021/05/11 19:18:56;;;;;;;0.87;0.87;;;20.50;38.20;;;;;;8295790;28;20068;-49
2021/05/11 19:22:58;;;;;;;1.07;0.80;;;20.50;38.20;;;;;;8325460;28;20115;-49
2021/05/11 19:26:58;;;;;;;1.48;1.05;;;20.50;38.20;;;;;;8331192;28;20495;-49
2021/05/11 19:31:01;;;;;;;1.30;0.90;;;20.50;38.30;;;;;;8306960;28;20167;-50
2021/05/11 19:35:02;;;;;;;1.10;0.93;;;20.50;38.20;;;;;;8299179;28;20033;-50
2021/05/11 19:39:12;;;;;;;0.95;0.80;;;20.40;38.20;;;;;;8327994;28;20032;-49
2021/05/11 19:43:12;;;;;;;1.17;0.80;;;20.50;38.30;;;;;;8332567;28;20076;-49
2021/05/11 19:47:13;;;;;;;1.40;1.27;;;20.40;38.20;;;;;;8326075;28;20030;-51
2021/05/11 19:51:13;;;;;;;1.90;1.00;;;20.40;38.20;;;;;;8327993;28;20048;-51
2021/05/11 19:55:15;;;;;;;1.87;0.70;;;20.40;38.20;;;;;;8304419;28;20423;-51
2021/05/11 19:59:15;;;;;;;0.85;0.77;;;20.40;38.20;;;;;;8304639;28;20040;-51
2021/05/11 20:03:17;;;;;;;1.20;0.83;;;20.40;38.20;;;;;;8327236;28;20052;-48
2021/05/11 20:07:17;;;;;;;2.22;0.90;;;20.40;38.20;;;;;;8327168;28;20030;-49
2021/05/11 20:11:18;;;;;;;0.93;0.80;;;20.40;38.70;;;;;;8325435;28;20071;-48
2021/05/11 20:15:19;;;;;;;0.80;0.80;;;20.40;38.20;;;;;;8326880;28;20038;-49
2021/05/11 20:19:19;;;;;;;0.68;0.68;;;20.40;38.20;;;;;;8307504;28;20042;-49
2021/05/11 20:23:20;;;;;;;1.00;0.80;;;20.40;38.30;;;;;;8291448;28;20411;-48
2021/05/11 20:27:22;;;;;;;2.00;0.70;;;20.40;38.30;;;;;;8294000;28;20045;-51
2021/05/11 20:31:23;;;;;;;0.95;0.80;;;20.40;38.20;;;;;;8317912;28;20083;-53
2021/05/11 20:35:25;;;;;;;1.33;0.97;;;20.30;38.20;;;;;;8305398;28;20120;-51
2021/05/11 20:39:26;;;;;;;0.73;0.60;;;20.40;38.20;;;;;;8309675;28;20312;-49
2021/05/11 20:43:26;;;;;;;0.73;0.70;;;20.40;38.20;;;;;;8292630;28;20042;-50
2021/05/11 20:47:27;;;;;;;0.83;0.80;;;20.30;38.20;;;;;;8326311;28;20057;-50
2021/05/11 20:51:27;;;;;;;2.33;1.07;;;20.30;38.20;;;;;;8326118;28;20130;-51
2021/05/11 20:55:29;;;;;;;1.27;0.77;;;20.30;38.20;;;;;;8328398;28;20410;-50
2021/05/11 20:59:30;;;;;;;1.10;0.93;;;20.30;38.20;;;;;;8325749;28;20060;-50
2021/05/11 21:03:31;;;;;;;0.82;0.80;;;20.30;38.20;;;;;;8325483;28;20045;-52
2021/05/11 21:07:32;;;;;;;0.70;0.60;;;20.30;38.20;;;;;;8323757;28;20057;-50
2021/05/11 21:11:32;;;;;;;0.70;0.70;;;20.30;38.20;;;;;;8329953;28;20091;-53
2021/05/11 21:15:33;;;;;;;0.50;0.50;;;20.30;38.20;;;;;;8325794;28;20510;-52
2021/05/11 21:24:30;;;;;;;0.95;0.80;;;20.30;38.20;;;;;;8293181;28;20076;-51
2021/05/11 21:28:31;;;;;;;0.70;0.57;;;20.30;38.30;;;;;;8297940;28;20053;-51
2021/05/11 21:32:33;;;;;;;0.50;0.50;;;20.20;38.30;;;;;;8296407;28;20026;-49
2021/05/11 21:36:34;;;;;;;0.90;0.70;;;20.20;38.20;;;;;;8310265;28;20064;-51
2021/05/11 21:40:34;;;;;;;1.33;1.17;;;20.30;38.30;;;;;;8297248;28;20046;-50
2021/05/11 21:44:37;;;;;;;1.13;0.70;;;20.30;38.40;;;;;;8292073;28;20034;-50
2021/05/11 21:48:38;;;;;;;1.42;0.77;;;20.20;38.30;;;;;;8311689;28;20511;-49
2021/05/11 21:52:40;;;;;;;1.07;0.77;;;20.20;38.30;;;;;;8326659;28;20018;-52
2021/05/11 21:56:41;;;;;;;1.08;0.80;;;20.20;38.20;;;;;;8314267;28;20041;-52
2021/05/11 22:00:43;;;;;;;0.80;0.70;;;20.20;38.30;;;;;;8291889;28;20065;-50
2021/05/11 22:04:43;;;;;;;0.65;0.57;;;20.20;38.30;;;;;;8292260;28;20048;-49
2021/05/11 22:08:44;;;;;;;0.57;0.57;;;20.20;38.40;;;;;;8329069;28;20478;-49
2021/05/11 22:12:45;;;;;;;1.03;0.67;;;20.20;38.40;;;;;;8324228;28;20044;-48
2021/05/11 22:16:45;;;;;;;1.20;0.63;;;20.20;38.30;;;;;;8322672;28;20064;-50
2021/05/11 22:20:46;;;;;;;0.80;0.70;;;20.20;38.30;;;;;;8324128;28;20045;-47
2021/05/11 22:24:46;;;;;;;0.80;0.77;;;20.20;38.40;;;;;;8309174;28;20066;-48
2021/05/11 22:28:47;;;;;;;1.30;0.63;;;20.20;38.40;;;;;;8317601;28;20037;-54
2021/05/11 22:32:48;;;;;;;0.73;0.50;;;20.10;38.40;;;;;;8324212;28;20073;-50
2021/05/11 22:36:48;;;;;;;1.10;0.70;;;20.10;38.30;;;;;;8324146;28;20050;-50
2021/05/11 22:40:49;;;;;;;0.90;0.80;;;20.10;38.40;;;;;;8322072;28;20045;-48
2021/05/11 22:44:49;;;;;;;1.88;0.50;;;20.10;38.40;;;;;;8329371;28;20116;-49
2021/05/11 22:48:50;;;;;;;1.13;0.43;;;20.10;38.50;;;;;;8329512;28;20398;-48
2021/05/11 22:52:50;;;;;;;1.00;0.70;;;20.10;38.40;;;;;;8328175;28;20037;-48
2021/05/11 22:56:51;;;;;;;0.50;0.40;;;20.10;38.50;;;;;;8329672;28;20082;-48
2021/05/11 23:00:52;;;;;;;1.00;0.67;;;20.10;39.00;;;;;;8333612;28;20088;-49
2021/05/11 23:04:53;;;;;;;;;;;20.10;38.50;;;;;;8327763;28;20033;-48
2021/05/11 23:08:53;;;;;;;0.50;0.50;;;20.10;38.50;;;;;;8316864;28;20370;-49
2021/05/11 23:12:55;;;;;;;0.60;0.60;;;20.10;38.60;;;;;;8296338;28;20125;-48
2021/05/11 23:16:58;;;;;;;0.95;0.60;;;20.00;38.50;;;;;;8298642;28;20033;-48
2021/05/11 23:21:00;;;;;;;0.40;0.40;;;20.00;38.50;;;;;;8298061;28;20037;-49
2021/05/11 23:25:00;;;;;;;0.63;0.60;;;20.00;38.60;;;;;;8317394;28;20379;-49
2021/05/11 23:29:01;;;;;;;0.77;0.77;;;20.00;39.00;;;;;;8297231;28;20038;-48
2021/05/11 23:33:01;;;;;;;0.50;0.50;;;20.00;38.50;;;;;;8295465;28;20018;-48
2021/05/11 23:37:02;;;;;;;1.37;0.70;;;20.00;38.50;;;;;;8321248;28;20045;-48
2021/05/11 23:41:03;;;;;;;0.55;0.55;;;20.00;38.50;;;;;;8326366;28;20060;-49
2021/05/11 23:45:04;;;;;;;0.73;0.60;;;20.00;38.50;;;;;;8328021;28;20041;-48
2021/05/11 23:49:05;;;;;;;1.00;0.77;;;20.00;38.50;;;;;;8327776;28;20434;-48
2021/05/11 23:53:06;;;;;;;0.63;0.60;;;20.00;38.50;;;;;;8330654;28;20026;-48
2021/05/11 23:57:06;;;;;;;0.73;0.50;;;20.00;38.50;;;;;;8327705;28;20068;-48
